Norway, Illinois
Current Conditions -  °F | °C
As of 10:35 AM on Saturday 20 Dec 2014 (Local Time) from KC09 Reporting Station
Overcast Overcast  
Wind Chill: 25°   Ceiling: 4100
Heat Index: 31°   Visibility: 7mi
Dew Point: 27°   Wind: 6mph
Humidity: 86%   Direction: 180°S
Pressure: 30.29"   Gusts: NA
Location:  41.5036°N, 88.6507°W
Report Text: KC09 201635Z AUTO 18005KT 7SM BKN041 BKN055 OVC065 00/M03 A3029 RMK AO2 T10051026
Loading
Personal Weather Stations






























Interactive Weather Map New forecast layout! Learn more

10-Day Weather Forecast

Advertisements
Track Severe Weather on mobile